Time;durP1;ratioP1;P1;durP2;ratioP2;P2;SDS_P1;SDS_P2;PMS_P1;PMS_P2;Temp;Humidity;BMP_temperature;BMP_pressure;BME280_temperature;BME280_humidity;BME280_pressure;Samples;Min_cycle;Max_cycle;Signal;HPM_P1;HPM_P2
2022/05/07 00:01:43;;;;;;;11.50;5.95;;;12.10;1.00;;;13.28;63.57;99613.34;5037543;27;130860;-75
2022/05/07 00:04:13;;;;;;;9.80;5.00;;;12.10;1.00;;;13.27;63.27;99617.97;5037765;27;129475;-75
2022/05/07 00:06:42;;;;;;;9.68;5.90;;;12.10;1.00;;;13.30;62.93;99619.25;5037777;27;125690;-75
2022/05/07 00:09:11;;;;;;;9.23;5.85;;;12.10;1.00;;;13.36;62.17;99614.47;5038439;27;125237;-75
2022/05/07 00:11:40;;;;;;;8.30;5.45;;;12.10;1.00;;;13.37;61.12;99613.31;5037920;27;129511;-73
2022/05/07 00:14:08;;;;;;;10.98;6.43;;;12.10;1.00;;;13.30;62.29;99611.88;5037554;27;129662;-77
2022/05/07 00:19:24;;;;;;;8.37;5.63;;;12.10;1.00;;;13.31;58.25;99602.56;5037756;27;126414;-74
2022/05/07 00:21:53;;;;;;;9.00;5.50;;;12.10;1.00;;;13.28;57.04;99605.94;5037582;27;130168;-75
2022/05/07 00:24:21;;;;;;;9.18;5.03;;;12.10;1.00;;;13.29;54.58;99604.84;5005745;27;129224;-74
2022/05/07 00:26:50;;;;;;;8.85;5.05;;;12.20;1.00;;;13.30;51.36;99605.63;5037605;27;125514;-75
2022/05/07 00:29:19;;;;;;;11.48;4.78;;;12.30;1.00;;;13.34;50.50;99601.16;5037310;27;126060;-74
2022/05/07 00:31:48;;;;;;;9.23;4.85;;;12.50;1.00;;;13.43;50.15;99595.66;5021992;27;131493;-73
2022/05/07 00:34:17;;;;;;;7.93;4.88;;;12.60;1.00;;;13.45;49.99;99596.16;5037801;27;130589;-74
2022/05/07 00:36:46;;;;;;;8.00;4.30;;;12.60;1.00;;;13.47;50.03;99588.44;5022463;27;126599;-74
2022/05/07 00:39:15;;;;;;;10.55;4.93;;;12.60;1.00;;;13.47;49.35;99589.22;5037282;27;125492;-74
2022/05/07 00:41:44;;;;;;;7.80;4.15;;;12.60;1.00;;;13.47;49.49;99593.88;5021798;27;129431;-74
2022/05/07 00:44:12;;;;;;;7.30;4.68;;;12.60;1.00;;;13.51;49.05;99592.09;5021964;27;128968;-73
2022/05/07 00:46:41;;;;;;;8.02;4.60;;;12.60;1.00;;;13.55;48.87;99595.75;5022025;27;125328;-74
2022/05/07 00:49:10;;;;;;;10.02;4.93;;;12.60;1.00;;;13.55;48.97;99587.56;5019092;27;125944;-76
2022/05/07 00:51:38;;;;;;;7.55;4.68;;;12.60;1.00;;;13.54;49.15;99583.28;5021511;27;131308;-72
2022/05/07 00:54:10;;;;;;;8.57;4.72;;;12.60;1.00;;;13.55;48.62;99579.41;5019253;27;129884;-73
2022/05/07 00:56:41;;;;;;;8.63;4.47;;;12.60;1.00;;;13.56;47.74;99585.66;5022485;27;126541;-75
2022/05/07 00:59:11;;;;;;;9.10;4.85;;;12.70;1.00;;;13.61;48.12;99583.53;5023089;27;124869;-75
2022/05/07 01:01:41;;;;;;;9.10;4.72;;;12.70;1.00;;;13.65;47.99;99583.69;5022152;27;131064;-74
2022/05/07 01:04:10;;;;;;;8.93;4.78;;;12.70;1.00;;;13.64;48.00;99576.63;5018649;27;129831;-76
2022/05/07 01:06:40;;;;;;;7.03;4.47;;;12.70;1.00;;;13.65;48.36;99573.56;5021568;27;126621;-74
2022/05/07 01:09:14;;;;;;;9.75;4.75;;;12.70;1.00;;;13.62;47.48;99568.78;5038706;27;125256;-74
2022/05/07 01:11:43;;;;;;;8.40;4.90;;;12.70;1.00;;;13.60;47.62;99565.59;5034796;27;131048;-75
2022/05/07 01:14:11;;;;;;;8.43;4.88;;;12.70;1.00;;;13.61;48.07;99571.84;5021460;27;129386;-75
2022/05/07 01:16:40;;;;;;;8.85;4.65;;;12.60;1.00;;;13.59;47.56;99568.66;5018912;27;126106;-75
2022/05/07 01:19:09;;;;;;;10.23;5.15;;;12.70;1.00;;;13.54;47.91;99564.19;5038838;27;125221;-75
2022/05/07 01:21:39;;;;;;;7.60;4.30;;;12.60;1.00;;;13.47;47.74;99566.63;5022216;27;128992;-74
2022/05/07 01:24:09;;;;;;;10.45;4.65;;;12.60;1.00;;;13.47;48.39;99561.16;5022105;27;129326;-74
2022/05/07 01:26:40;;;;;;;10.52;4.72;;;12.60;1.00;;;13.43;47.87;99560.22;5018274;27;126344;-74
2022/05/07 01:29:10;;;;;;;10.70;5.15;;;12.60;1.00;;;13.44;48.03;99567.28;5021843;27;125978;-75
2022/05/07 01:31:42;;;;;;;8.63;5.10;;;12.60;1.00;;;13.42;47.77;99559.44;5021452;27;129260;-72
2022/05/07 01:34:10;;;;;;;10.50;5.00;;;12.60;1.00;;;13.41;48.25;99567.94;5036394;27;129761;-75
2022/05/07 01:36:45;;;;;;;9.38;5.05;;;12.60;1.00;;;13.40;48.43;99560.88;5021314;27;125263;-75
2022/05/07 01:39:16;;;;;;;10.73;5.00;;;12.60;1.00;;;13.36;48.46;99571.63;5035237;27;125470;-74
2022/05/07 01:41:45;;;;;;;11.27;5.22;;;12.60;1.00;;;13.38;48.44;99565.88;5037914;27;128847;-74
2022/05/07 01:44:14;;;;;;;9.00;4.68;;;12.60;1.00;;;13.44;48.00;99572.72;5017915;27;129505;-75
2022/05/07 01:49:33;;;;;;;12.77;5.00;;;12.50;1.00;;;13.46;48.70;99560.38;5018433;27;126079;-72
2022/05/07 01:52:05;;;;;;;8.73;4.50;;;12.50;1.00;;;13.41;48.82;99562.47;5035953;27;130046;-74
2022/05/07 01:54:36;;;;;;;9.15;4.55;;;12.50;1.00;;;13.36;48.58;99557.22;5017455;27;130030;-73
2022/05/07 01:57:05;;;;;;;8.02;4.60;;;12.50;1.00;;;13.42;48.72;99558.63;5037771;27;126923;-73
2022/05/07 01:59:33;;;;;;;9.32;4.65;;;12.50;1.00;;;13.43;48.75;99550.13;5018063;27;126275;-73
2022/05/07 02:02:06;;;;;;;7.93;4.47;;;12.50;1.00;;;13.43;49.30;99546.59;5020649;27;129387;-72
2022/05/07 02:04:35;;;;;;;8.88;4.38;;;12.40;1.00;;;13.35;49.69;99542.00;5034499;27;129461;-73
2022/05/07 02:07:08;;;;;;;10.70;5.68;;;12.40;1.00;;;13.41;49.18;99551.56;5020606;27;127831;-73
2022/05/07 02:09:37;;;;;;;10.50;4.88;;;12.40;1.00;;;13.38;49.29;99544.06;5017831;27;125396;-73
2022/05/07 02:12:06;;;;;;;10.90;5.45;;;12.40;1.00;;;13.35;49.44;99547.44;5037601;27;130510;-73
2022/05/07 02:14:38;;;;;;;9.38;5.00;;;12.40;1.00;;;13.32;49.53;99546.13;5017914;27;129638;-73
2022/05/07 02:17:07;;;;;;;10.07;5.05;;;12.40;1.00;;;13.29;50.01;99544.88;5020808;27;124932;-73
2022/05/07 02:19:35;;;;;;;7.88;5.15;;;12.40;1.00;;;13.29;50.08;99553.06;5035940;27;125841;-73
2022/05/07 02:22:06;;;;;;;8.35;4.93;;;12.40;1.00;;;13.30;50.09;99546.47;5033555;27;130238;-75
2022/05/07 02:24:35;;;;;;;9.60;4.97;;;12.30;1.00;;;13.31;50.04;99550.78;5035018;27;130034;-74
2022/05/07 02:27:06;;;;;;;8.60;4.68;;;12.30;1.00;;;13.25;50.18;99554.81;5034364;27;126527;-75
2022/05/07 02:29:35;;;;;;;9.52;4.80;;;12.30;1.00;;;13.24;50.34;99553.22;5035660;27;125923;-75
2022/05/07 02:32:06;;;;;;;6.88;4.55;;;12.30;1.00;;;13.27;50.36;99549.84;5017459;27;130263;-74
2022/05/07 02:34:39;;;;;;;8.50;4.72;;;12.30;1.00;;;13.24;50.46;99558.66;5020309;27;129420;-74
2022/05/07 02:37:17;;;;;;;6.88;4.70;;;12.30;1.00;;;13.22;50.76;99550.03;5020275;27;124644;-73
2022/05/07 02:39:50;;;;;;;8.45;4.80;;;12.30;1.00;;;13.21;50.91;99558.53;5017562;27;125629;-75
2022/05/07 02:42:36;;;;;;;8.25;4.57;;;12.30;1.00;;;13.24;50.16;99553.22;5020179;27;130432;-71
2022/05/07 02:45:20;;;;;;;8.32;4.75;;;12.30;1.00;;;13.23;50.92;99550.81;5020274;27;129645;-74
2022/05/07 02:47:55;;;;;;;9.75;5.03;;;12.30;1.00;;;13.21;51.19;99558.53;5018674;27;126970;-73
2022/05/07 02:50:25;;;;;;;7.90;4.57;;;12.20;1.00;;;13.17;51.62;99566.56;5016792;27;126154;-73
2022/05/07 02:52:56;;;;;;;9.35;4.82;;;12.20;1.00;;;13.18;51.29;99559.19;5020045;27;130462;-74
2022/05/07 02:55:24;;;;;;;9.77;5.03;;;12.20;1.00;;;13.17;51.28;99558.41;5034870;27;129454;-75
2022/05/07 02:57:56;;;;;;;10.40;5.25;;;12.20;1.00;;;13.20;51.62;99557.75;5020400;27;126223;-74
2022/05/07 03:00:25;;;;;;;8.10;5.00;;;12.20;1.00;;;13.24;51.43;99553.22;5035145;27;125563;-71
2022/05/07 03:02:54;;;;;;;9.27;4.63;;;12.20;1.00;;;13.27;51.41;99558.00;5033471;27;130439;-73
2022/05/07 03:05:27;;;;;;;9.20;4.82;;;12.20;1.00;;;13.30;51.59;99557.34;5020398;27;128611;-73
2022/05/07 03:07:59;;;;;;;10.88;4.82;;;12.30;1.00;;;13.33;50.91;99560.56;5016957;27;126964;-74
2022/05/07 03:10:28;;;;;;;12.02;5.05;;;12.30;1.00;;;13.35;51.24;99553.69;5020049;27;125632;-74
2022/05/07 03:12:56;;;;;;;9.70;4.70;;;12.30;1.00;;;13.41;51.36;99552.38;5034748;27;131115;-74
2022/05/07 03:15:25;;;;;;;8.32;4.68;;;12.30;1.00;;;13.41;51.67;99562.47;5019536;27;128679;-75
2022/05/07 03:17:54;;;;;;;10.85;5.30;;;12.30;1.00;;;13.46;51.47;99556.84;5017003;27;126292;-75
2022/05/07 03:20:23;;;;;;;9.88;4.97;;;12.40;1.00;;;13.47;51.87;99566.63;5019928;27;125705;-74
2022/05/07 03:22:52;;;;;;;8.05;5.00;;;12.30;1.00;;;13.52;51.54;99568.34;5016427;27;130377;-75
2022/05/07 03:25:22;;;;;;;7.93;4.47;;;12.40;1.00;;;13.54;51.24;99566.91;5034639;27;129376;-74
2022/05/07 03:27:51;;;;;;;8.85;4.35;;;12.40;1.00;;;13.59;51.30;99561.25;5019471;27;125736;-74
2022/05/07 03:30:20;;;;;;;8.10;4.40;;;12.40;1.00;;;13.70;50.95;99558.94;5020158;27;125265;-74
2022/05/07 03:32:59;;;;;;;7.25;4.50;;;12.50;1.00;;;13.70;51.14;99558.13;5034699;27;130106;-74
2022/05/07 03:35:29;;;;;;;8.60;4.70;;;12.50;1.00;;;13.76;51.05;99565.00;5019487;27;129471;-72
2022/05/07 03:37:58;;;;;;;9.00;4.63;;;12.60;1.00;;;13.91;50.46;99564.41;5033290;27;126780;-73
2022/05/07 03:40:32;;;;;;;6.57;4.45;;;12.70;1.00;;;13.99;50.64;99566.28;5019663;27;125638;-74
2022/05/07 03:43:01;;;;;;;8.63;4.60;;;12.80;1.00;;;14.07;50.68;99566.53;5016410;27;130627;-73
2022/05/07 03:45:31;;;;;;;7.90;4.20;;;12.80;1.00;;;14.15;50.04;99571.94;5019429;27;129281;-74
2022/05/07 03:48:01;;;;;;;8.13;4.57;;;12.80;1.00;;;14.17;50.42;99561.47;5036294;27;125681;-73
2022/05/07 03:50:30;;;;;;;9.05;4.13;;;12.90;1.00;;;14.20;50.39;99566.28;5019653;27;124933;-73
2022/05/07 03:55:48;;;;;;;7.00;4.22;;;12.90;1.00;;;14.30;50.57;99570.50;5019685;27;128432;-72
2022/05/07 03:58:27;;;;;;;8.77;4.20;;;12.90;1.00;;;14.37;50.75;99570.78;5019319;27;127472;-72
2022/05/07 04:00:57;;;;;;;6.35;3.88;;;13.00;1.00;;;14.18;51.47;99579.47;5034291;27;126614;-74
2022/05/07 04:03:26;;;;;;;9.88;5.00;;;12.90;1.00;;;14.23;52.02;99585.84;5018842;27;129632;-73
2022/05/07 04:05:59;;;;;;;10.27;4.60;;;13.00;1.00;;;14.27;51.91;99579.38;5015896;27;130678;-73
2022/05/07 04:08:29;;;;;;;6.82;4.40;;;13.00;1.00;;;14.29;52.05;99590.78;5019297;27;125572;-73
2022/05/07 04:11:02;;;;;;;8.27;4.18;;;13.00;1.00;;;14.28;51.99;99599.28;5019129;27;124691;-75
2022/05/07 04:13:30;;;;;;;7.45;4.25;;;12.90;1.00;;;14.25;52.47;99603.47;5036091;27;130277;-76
2022/05/07 04:16:01;;;;;;;7.72;4.57;;;12.90;1.00;;;14.25;52.61;99606.22;5016521;27;129443;-76
2022/05/07 04:18:36;;;;;;;9.52;4.90;;;12.80;1.00;;;14.16;53.47;99602.75;5020379;27;125921;-75
2022/05/07 04:21:10;;;;;;;11.50;4.70;;;12.70;1.00;;;14.18;53.70;99608.69;5017899;27;126052;-78
2022/05/07 04:23:39;;;;;;;10.40;5.05;;;12.80;1.00;;;14.04;54.16;99611.69;5019242;27;129575;-76
2022/05/07 04:26:10;;;;;;;9.27;4.55;;;12.70;1.00;;;14.26;53.83;99599.63;5035698;27;128392;-74
2022/05/07 04:28:44;;;;;;;7.15;4.50;;;12.80;1.00;;;14.36;54.17;99618.31;5015668;27;126527;-74
2022/05/07 04:31:16;;;;;;;9.75;4.85;;;12.90;1.00;;;14.38;54.81;99610.63;5018726;27;126089;-75
2022/05/07 04:33:46;;;;;;;8.73;4.82;;;13.00;1.00;;;14.32;54.84;99611.94;5018863;27;129120;-74
2022/05/07 04:36:16;;;;;;;9.95;4.40;;;13.00;1.00;;;14.20;55.67;99614.59;5035976;27;129785;-74
2022/05/07 04:38:46;;;;;;;6.85;4.18;;;12.90;1.00;;;14.16;55.86;99610.94;5032829;27;126195;-74
2022/05/07 04:41:23;;;;;;;11.40;5.40;;;12.90;1.00;;;14.20;56.27;99609.16;5036006;27;124086;-76
2022/05/07 04:43:52;;;;;;;9.95;5.03;;;12.90;1.00;;;14.22;56.25;99611.53;5036446;27;129270;-72
2022/05/07 04:46:20;;;;;;;12.73;5.10;;;12.90;1.00;;;14.24;56.57;99604.59;5020597;27;130447;-74
2022/05/07 04:48:58;;;;;;;11.57;5.30;;;12.90;1.00;;;14.33;56.70;99608.06;5022323;27;126794;-74
2022/05/07 04:51:27;;;;;;;10.98;5.00;;;13.00;1.00;;;14.34;57.13;99609.66;5037797;27;125725;-77
2022/05/07 04:54:07;;;;;;;10.90;5.50;;;12.90;1.00;;;14.42;57.27;99609.94;5022149;27;129198;-76
2022/05/07 04:56:38;;;;;;;7.97;4.93;;;13.00;1.00;;;14.50;56.96;99618.03;5018582;27;129630;-74
2022/05/07 04:59:08;;;;;;;9.10;4.97;;;13.10;1.00;;;14.50;56.96;99617.25;5018949;27;125818;-71
2022/05/07 05:01:45;;;;;;;8.82;5.38;;;13.00;1.00;;;14.38;56.84;99610.63;5022165;27;125280;-76
2022/05/07 05:04:16;;;;;;;10.93;4.88;;;12.90;1.00;;;14.28;57.67;99611.00;5023747;27;130359;-75
2022/05/07 05:06:45;;;;;;;8.45;4.72;;;12.80;1.00;;;14.21;58.27;99605.31;5018752;27;129321;-75
2022/05/07 05:09:18;;;;;;;9.45;5.05;;;12.90;1.00;;;14.24;58.51;99610.06;5022435;27;125200;-76
2022/05/07 05:12:13;;;;;;;8.80;4.57;;;12.90;1.00;;;14.36;58.92;99607.41;5028518;27;125367;-78
2022/05/07 05:15:04;;;;;;;9.63;5.78;;;12.90;1.00;;;14.45;62.08;99610.06;5021150;27;129228;-77
2022/05/07 05:18:06;;;;;;;9.02;5.13;;;13.00;1.00;;;14.32;60.73;99611.94;5017669;27;129098;-79
2022/05/07 05:20:38;;;;;;;8.23;5.18;;;12.80;1.00;;;14.31;61.68;99596.69;5021386;27;128533;-77
2022/05/07 05:23:29;;;;;;;8.90;5.05;;;12.70;1.00;;;14.49;61.79;99602.81;5018127;27;126421;-76
2022/05/07 05:25:58;;;;;;;8.30;5.00;;;12.90;1.00;;;14.65;61.56;99607.69;5019626;27;130043;-78
2022/05/07 05:28:40;;;;;;;10.60;5.20;;;13.00;1.00;;;14.70;62.96;99607.47;5021792;27;128996;-75
2022/05/07 05:31:12;;;;;;;10.30;5.32;;;13.10;1.00;;;14.73;62.40;99609.53;5005252;27;125079;-75
2022/05/07 05:33:44;;;;;;;11.88;5.28;;;13.10;1.00;;;14.74;60.64;99605.66;5021185;27;125215;-79
2022/05/07 05:36:24;;;;;;;9.55;4.90;;;13.10;1.00;;;14.79;60.59;99612.81;5024460;27;129508;-77
2022/05/07 05:38:52;;;;;;;8.85;5.65;;;13.20;1.00;;;14.96;60.34;99612.66;5033293;27;129420;-76
2022/05/07 05:41:25;;;;;;;11.38;5.82;;;13.30;1.00;;;15.22;59.63;99606.91;5024156;27;127445;-76
2022/05/07 05:43:56;;;;;;;8.77;5.28;;;13.50;1.00;;;15.52;59.45;99606.69;5049458;27;125608;-78
2022/05/07 05:46:27;;;;;;;12.88;5.45;;;13.60;1.00;;;15.72;56.69;99607.72;5032416;27;130545;-78
2022/05/07 05:48:56;;;;;;;9.73;5.47;;;13.70;1.00;;;15.90;56.83;99604.75;5039782;27;129056;-78
2022/05/07 05:51:25;;;;;;;9.65;5.80;;;13.90;1.00;;;16.08;56.44;99608.81;5025401;27;126638;-77
2022/05/07 05:53:54;;;;;;;8.70;5.22;;;14.00;1.00;;;16.20;56.50;99609.94;5018579;27;125471;-79
2022/05/07 05:56:22;;;;;;;13.68;5.82;;;14.10;1.00;;;16.20;55.87;99612.66;5028199;27;129241;-76
2022/05/07 05:58:57;;;;;;;9.48;5.55;;;14.20;1.00;;;16.27;55.11;99618.38;5019255;27;130615;-76
2022/05/07 06:01:31;;;;;;;14.83;6.27;;;14.20;1.00;;;16.27;54.72;99618.38;5014624;27;123878;-78
2022/05/07 06:04:27;;;;;;;9.63;5.20;;;14.20;1.00;;;16.34;53.58;99619.34;5026701;27;126339;-81
2022/05/07 06:06:59;;;;;;;9.23;5.45;;;14.30;1.00;;;16.07;54.38;99604.50;5009121;27;130171;-79
2022/05/07 06:09:31;;;;;;;9.23;5.50;;;13.70;1.00;;;16.30;54.02;99612.19;5030508;27;130747;-79
2022/05/07 06:12:00;;;;;;;10.38;6.20;;;14.10;1.00;;;16.51;55.15;99607.31;5023937;27;126418;-80
2022/05/07 06:14:34;;;;;;;11.70;6.18;;;14.40;1.00;;;16.83;52.98;99612.88;5026909;27;127866;-79
2022/05/07 06:17:05;;;;;;;12.98;6.13;;;14.50;1.00;;;16.76;52.08;99618.16;5021557;27;129707;-81
2022/05/07 06:19:34;;;;;;;14.13;6.90;;;14.00;1.00;;;16.49;52.86;99620.56;5020449;27;129273;-79
2022/05/07 06:22:02;;;;;;;14.80;7.32;;;13.80;1.00;;;16.16;53.48;99624.31;5026636;27;126273;-82
2022/05/07 06:27:32;;;;;;;13.82;7.35;;;13.40;1.00;;;15.89;54.66;99609.41;5017630;27;129881;-82
2022/05/07 06:30:10;;;;;;;10.85;6.65;;;13.50;1.00;;;15.99;54.43;99624.59;5015328;27;130187;-77
2022/05/07 06:32:47;;;;;;;11.15;6.60;;;13.60;1.00;;;16.03;53.93;99625.47;5018103;27;125025;-80
2022/05/07 06:35:16;;;;;;;15.02;6.80;;;13.80;1.00;;;15.96;53.85;99619.81;5018972;27;126049;-80
2022/05/07 06:38:06;;;;;;;12.13;6.18;;;13.80;1.00;;;15.94;53.88;99620.16;5042455;27;131056;-77
2022/05/07 06:40:37;;;;;;;11.73;6.38;;;13.90;1.00;;;15.80;53.58;99620.50;5023513;27;129328;-79
2022/05/07 06:43:08;;;;;;;10.02;6.00;;;13.90;1.00;;;15.74;53.58;99612.84;5045084;27;126323;-77
2022/05/07 06:46:11;;;;;;;11.45;6.15;;;13.80;1.00;;;15.61;54.06;99625.72;5043627;27;124923;-76
2022/05/07 06:48:55;;;;;;;9.50;5.65;;;13.60;1.00;;;15.65;54.38;99626.63;5033988;27;130399;-77
2022/05/07 06:51:31;;;;;;;12.40;6.25;;;13.80;1.00;;;15.61;54.89;99631.19;5028321;27;129475;-75
2022/05/07 06:53:59;;;;;;;11.25;6.57;;;13.80;1.00;;;15.49;55.89;99626.53;5020566;27;125758;-77
2022/05/07 06:56:28;;;;;;;11.18;6.47;;;13.80;1.00;;;15.49;57.10;99628.44;5048451;27;125558;-78
2022/05/07 06:58:56;;;;;;;11.38;6.70;;;13.80;1.00;;;15.51;59.59;99637.13;5021926;27;128533;-78
2022/05/07 07:01:27;;;;;;;10.35;6.43;;;13.80;1.00;;;15.56;58.74;99634.16;5039868;27;129426;-79
2022/05/07 07:03:55;;;;;;;11.73;6.68;;;13.80;1.00;;;15.70;59.20;99631.88;5032932;27;126943;-78
2022/05/07 07:06:24;;;;;;;11.20;6.63;;;13.80;1.00;;;15.92;59.22;99624.34;5053095;27;126337;-78
2022/05/07 07:08:53;;;;;;;11.30;6.85;;;13.90;1.00;;;16.05;59.33;99627.88;5032976;27;129798;-78
2022/05/07 07:11:22;;;;;;;11.02;6.57;;;14.00;1.00;;;16.28;58.15;99630.91;5014857;28;130833;-78
2022/05/07 07:13:50;;;;;;;10.80;6.80;;;14.10;1.00;;;16.36;59.33;99640.91;5015569;28;125656;-77
2022/05/07 07:16:19;;;;;;;12.45;6.32;;;14.30;1.00;;;16.39;58.48;99636.69;5017982;28;125457;-79
2022/05/07 07:18:49;;;;;;;10.25;6.75;;;14.30;1.00;;;16.44;58.55;99640.00;5013107;28;130436;-77
2022/05/07 07:21:19;;;;;;;10.05;6.45;;;14.20;1.00;;;16.57;58.21;99635.25;5013240;28;131206;-78
2022/05/07 07:23:47;;;;;;;17.88;7.28;;;14.40;1.00;;;16.71;57.19;99637.59;5014704;28;126058;-79
2022/05/07 07:26:16;;;;;;;12.38;6.95;;;14.50;1.00;;;16.81;56.91;99641.78;5014877;28;125385;-78
2022/05/07 07:28:45;;;;;;;12.13;7.50;;;14.50;1.00;;;16.88;57.25;99631.84;5014551;28;130280;-78
2022/05/07 07:31:14;;;;;;;10.38;7.15;;;14.70;1.00;;;16.97;56.63;99639.09;4998290;28;128785;-78
2022/05/07 07:33:43;;;;;;;11.77;6.60;;;14.70;1.00;;;17.03;56.87;99637.69;5013906;28;125872;-78
2022/05/07 07:36:13;;;;;;;10.07;6.75;;;14.70;1.00;;;17.07;55.95;99622.13;5014363;28;125496;-77
2022/05/07 07:38:42;;;;;;;12.43;7.03;;;14.40;1.00;;;17.12;55.35;99630.09;5017197;28;129123;-78
2022/05/07 07:41:10;;;;;;;15.40;7.85;;;14.30;1.00;;;17.28;54.90;99637.53;5015280;28;130343;-78
2022/05/07 07:43:40;;;;;;;10.75;6.93;;;14.50;1.00;;;17.18;53.92;99639.66;4998078;28;125215;-76
2022/05/07 07:48:54;;;;;;;10.10;7.93;;;14.70;1.00;;;17.68;54.55;99631.06;5013980;28;130034;-79
2022/05/07 07:51:24;;;;;;;12.57;7.68;;;15.00;1.00;;;18.05;53.41;99634.31;5014053;28;129900;-78
2022/05/07 07:53:53;;;;;;;11.82;6.75;;;15.20;1.00;;;18.42;53.05;99639.41;5013506;28;127696;-78
2022/05/07 07:56:21;;;;;;;15.30;8.30;;;15.50;1.00;;;18.84;49.87;99635.13;5013352;28;126347;-78
2022/05/07 07:58:51;;;;;;;14.57;7.95;;;15.60;1.00;;;18.85;49.58;99633.97;5013782;28;130332;-79
2022/05/07 08:01:19;;;;;;;13.40;8.32;;;15.30;1.00;;;18.98;49.91;99645.59;5033206;27;129409;-76
2022/05/07 08:03:48;;;;;;;13.75;9.25;;;14.90;1.00;;;19.28;49.18;99640.25;5034873;27;126135;-78
2022/05/07 08:06:17;;;;;;;17.42;10.60;;;15.40;1.00;;;19.29;48.75;99636.34;5034237;27;125834;-79
2022/05/07 08:11:46;;;;;;;15.15;9.02;;;15.30;1.00;;;19.65;47.74;99642.44;5017099;27;130042;-79
2022/05/07 08:14:15;;;;;;;17.80;11.48;;;15.30;1.00;;;19.89;47.56;99637.72;5033816;27;125801;-78
2022/05/07 08:16:45;;;;;;;11.73;7.38;;;15.50;1.00;;;20.04;47.89;99635.94;5027355;27;126003;-81
2022/05/07 08:19:13;;;;;;;20.88;11.88;;;16.20;1.00;;;19.90;48.44;99636.56;5032328;27;129852;-80
2022/05/07 08:21:42;;;;;;;9.73;7.47;;;16.20;1.00;;;19.60;49.05;99645.50;5034344;27;130066;-78
2022/05/07 08:24:12;;;;;;;12.07;7.95;;;16.10;1.00;;;19.31;49.49;99639.53;5037390;27;125861;-79
2022/05/07 08:26:41;;;;;;;12.90;8.52;;;15.70;1.00;;;19.06;50.20;99646.53;5035343;27;125415;-79
2022/05/07 08:29:10;;;;;;;16.23;9.60;;;15.30;1.00;;;19.02;50.47;99650.00;5036607;27;131657;-80
2022/05/07 08:31:39;;;;;;;12.63;7.90;;;15.20;1.00;;;19.20;49.67;99644.84;5020864;27;129697;-78
2022/05/07 08:34:08;;;;;;;14.73;8.13;;;15.70;1.00;;;19.56;48.90;99652.91;5022957;27;125356;-79
2022/05/07 08:36:36;;;;;;;10.70;7.65;;;15.80;1.00;;;19.70;47.31;99644.09;5022952;27;125694;-80
2022/05/07 08:39:04;;;;;;;14.98;7.88;;;15.10;1.00;;;19.47;47.92;99646.88;5004877;27;129454;-78
2022/05/07 08:41:35;;;;;;;11.02;7.55;;;15.20;1.00;;;19.27;48.93;99644.16;5018862;27;130114;-77
2022/05/07 08:44:05;;;;;;;11.75;7.38;;;16.20;1.00;;;19.47;48.68;99649.63;5038154;27;126715;-77
2022/05/07 08:46:34;;;;;;;11.80;8.90;;;16.70;1.00;;;19.88;47.17;99644.38;5037106;27;126016;-78
2022/05/07 08:49:02;;;;;;;23.95;16.35;;;16.30;1.00;;;20.35;46.87;99653.28;5037341;27;129649;-77
2022/05/07 08:51:31;;;;;;;10.68;7.03;;;16.60;1.00;;;20.73;45.68;99649.47;5022090;27;128654;-77
2022/05/07 08:54:00;;;;;;;11.70;7.45;;;17.00;1.00;;;20.90;44.73;99647.28;5037050;27;125919;-78
2022/05/07 08:56:28;;;;;;;12.23;8.43;;;16.60;1.00;;;20.02;46.66;99643.78;5039517;27;125999;-78
2022/05/07 08:58:58;;;;;;;9.98;7.20;;;16.90;1.00;;;19.92;46.80;99646.00;5036548;27;130012;-77
2022/05/07 09:01:27;;;;;;;12.45;8.15;;;17.10;1.00;;;20.05;47.44;99648.56;5037026;27;129539;-76
2022/05/07 09:03:55;;;;;;;13.27;7.75;;;17.20;1.00;;;20.19;46.54;99647.97;5036965;27;126085;-77
2022/05/07 09:06:26;;;;;;;11.75;8.07;;;16.70;1.00;;;20.47;46.09;99653.88;5021706;27;125556;-77
2022/05/07 09:08:56;;;;;;;12.52;8.10;;;16.40;1.00;;;20.64;46.36;99651.69;5036500;27;130366;-77
2022/05/07 09:11:26;;;;;;;12.88;8.00;;;16.90;1.00;;;20.48;46.16;99649.91;5037121;27;130846;-77
2022/05/07 09:14:05;;;;;;;8.15;5.10;;;16.60;1.00;;;19.95;46.13;99655.50;5037021;27;126045;-77
2022/05/07 09:16:42;;;;;;;9.65;5.90;;;16.10;1.00;;;19.70;47.51;99655.88;5022535;27;124623;-77
2022/05/07 09:19:21;;;;;;;11.70;6.75;;;15.90;1.00;;;19.19;49.45;99654.25;5024425;27;130376;-79
2022/05/07 09:21:50;;;;;;;11.50;6.95;;;15.50;1.00;;;19.38;49.78;99650.66;5016380;28;129443;-78
2022/05/07 09:24:19;;;;;;;10.40;7.30;;;16.10;1.00;;;19.56;49.44;99648.19;5019732;27;126855;-78
2022/05/07 09:26:48;;;;;;;10.48;7.35;;;16.00;1.00;;;19.65;49.22;99645.19;5013550;28;125975;-77
2022/05/07 09:29:18;;;;;;;11.15;8.30;;;16.00;1.00;;;19.61;49.76;99649.06;5016399;28;130275;-78
2022/05/07 09:31:48;;;;;;;14.88;8.57;;;16.40;1.00;;;19.62;49.63;99640.44;5016279;27;129852;-77
2022/05/07 09:37:16;;;;;;;11.20;8.55;;;16.20;1.00;;;19.61;49.59;99652.59;5016762;28;126776;-76
2022/05/07 09:39:48;;;;;;;11.75;9.15;;;16.20;1.00;;;19.85;49.57;99650.63;5017117;28;129701;-77
2022/05/07 09:42:19;;;;;;;12.07;8.77;;;16.30;1.00;;;20.31;49.00;99639.47;5018080;28;129750;-79
2022/05/07 09:44:50;;;;;;;10.52;8.18;;;17.10;1.00;;;20.70;48.01;99643.91;5016297;28;125725;-77
2022/05/07 09:47:19;;;;;;;17.85;9.38;;;17.60;1.00;;;20.56;48.02;99642.53;5025953;27;125025;-79
2022/05/07 09:52:34;;;;;;;13.35;8.88;;;16.90;1.00;;;20.26;49.22;99621.31;5038424;27;129283;-77
2022/05/07 09:57:59;;;;;;;13.25;8.57;;;17.60;1.00;;;20.87;48.45;99631.50;5013395;27;125281;-77
2022/05/07 10:00:30;;;;;;;12.63;8.45;;;17.80;1.00;;;21.33;47.06;99631.13;5036146;27;131139;-77
2022/05/07 10:03:16;;;;;;;12.85;7.70;;;18.50;1.00;;;21.80;46.13;99632.31;5037008;27;129451;-76
2022/05/07 10:06:20;;;;;;;11.68;9.18;;;19.00;1.00;;;21.36;45.63;99631.16;5039436;27;126651;-76
2022/05/07 10:09:15;;;;;;;10.50;7.65;;;18.50;1.00;;;21.56;46.47;99621.88;5040360;27;125587;-76
2022/05/07 10:11:44;;;;;;;12.20;8.23;;;18.70;1.00;;;21.97;45.22;99630.03;5043313;27;130504;-75
2022/05/07 10:14:27;;;;;;;10.90;8.52;;;19.10;1.00;;;22.68;44.51;99617.75;5048822;27;129868;-75
2022/05/07 10:17:10;;;;;;;11.45;8.68;;;19.50;1.00;;;22.78;42.00;99616.97;5040963;27;126976;-79
2022/05/07 10:19:40;;;;;;;10.68;7.57;;;18.30;1.00;;;22.45;43.34;99616.09;5035981;27;126071;-77
2022/05/07 10:22:23;;;;;;;11.80;7.18;;;18.00;1.00;;;22.65;43.53;99613.00;5039410;27;128708;-75
2022/05/07 10:25:05;;;;;;;12.45;7.72;;;19.10;1.00;;;21.94;44.20;99617.00;5038132;27;129681;-75
2022/05/07 10:27:35;;;;;;;9.88;8.50;;;19.20;1.00;;;21.87;45.03;99615.78;5040983;27;126355;-77
2022/05/07 10:30:07;;;;;;;13.38;7.43;;;18.80;1.00;;;21.91;45.15;99610.28;5042321;27;126034;-74
2022/05/07 10:32:56;;;;;;;11.65;8.05;;;18.50;1.00;;;21.67;46.08;99611.69;5038356;27;130443;-77
2022/05/07 10:35:41;;;;;;;14.32;8.48;;;18.60;1.00;;;21.26;46.65;99603.47;5038154;27;129336;-76
2022/05/07 10:38:11;;;;;;;10.30;7.32;;;18.50;1.00;;;21.24;47.28;99608.56;5041115;27;125689;-76
2022/05/07 10:40:51;;;;;;;11.55;7.68;;;18.70;1.00;;;21.20;47.28;99600.25;5023338;27;125218;-76
2022/05/07 10:43:40;;;;;;;10.18;7.80;;;18.50;1.00;;;21.14;47.32;99608.09;5037611;27;130263;-78
2022/05/07 10:46:12;;;;;;;12.27;8.45;;;18.40;1.00;;;21.97;44.73;99603.22;5038333;27;130662;-77
2022/05/07 10:48:47;;;;;;;8.63;7.03;;;18.80;1.00;;;22.24;45.28;99600.97;5041498;27;125355;-78
2022/05/07 10:51:21;;;;;;;10.38;8.18;;;19.30;1.00;;;22.32;44.24;99599.06;5037055;27;126542;-77
2022/05/07 10:53:51;;;;;;;12.52;8.80;;;19.40;1.00;;;22.22;44.39;99597.00;5036064;27;130386;-81
2022/05/07 10:56:21;;;;;;;12.20;8.07;;;18.80;1.00;;;21.61;45.17;99594.69;5022915;27;129816;-80
2022/05/07 10:58:51;;;;;;;14.88;8.48;;;17.80;1.00;;;21.15;47.02;99587.59;5030650;27;126490;-79
2022/05/07 11:01:23;;;;;;;12.60;8.68;;;18.00;1.00;;;21.58;45.90;99597.44;5019879;27;127376;-77